Acadiana Regional Airport
KARA : now visible

Airfield :











YOU CAN JOIN US ON...

 
LOGIN :

Register | Disclaimer

   EN    FR    IT 

 









Legend :    VFR   Marginal VFR   IFR   Intensive IFR   Very Intensive IFR
Visi :
Ceiling :
>= 8 km
>= 3000ft
5 to 8 km
1000 to 3000 ft
1500m to 5 km
500 to 1000 ft
800 to 1500m
200 to 500 ft
< 800m
< 200 ft
Symbols :   Thunderstorms  Fog  Heavy snow  Heavy precipitations  Wind > 20 kt






- Airport Elevation : 24 ft


KARA - Acadiana Regional

CURRENT METAR :
  • 220213Z 20007KT 10SM BKN007 BKN035 OVC120 18/18 A2995 RMK AO2 T01780178

EXPIRED METARs :
  • 220153Z 20007KT 10SM SCT009 BKN037 OVC110 18/17 A2995 RMK AO2 RAE01 SLP141 P0000 T01780172
  • 220128Z 20006KT 10SM SCT009 BKN100 18/18 A2995 RMK AO2 RAE01 P0000 T01780178
  • 220109Z 20006KT 10SM SCT027 BKN100 18/18 A2994 RMK AO2 RAE01 P0000 T01830178
  • 220053Z 19007KT 10SM -RA FEW011 BKN027 18/18 A2994 RMK AO2 RAB52 SLP138 P0000 T01830178
  • 212353Z 19007KT 10SM OVC028 19/18 A2995 RMK AO2 RAE2256 SLP142 P0000 60000 T01940178 10222 20194 56007

TAF KARA
Valid from the 22 at 02:00 until the 23 at 00:00 UTC


220204Z 2202/2224 21008KT P6SM VCSH SCT009 OVC035
TEMPO 2202/2204 BKN009 OVC035
FM220400 21008KT 6SM BR VCSH OVC008
TEMPO 2204/2206 4SM -SHRA BR OVC004
FM220600 25005KT 4SM -RA BR OVC004
FM221200 36008KT 4SM -RA BR OVC007
TEMPO 2212/2215 2SM -DZ BR OVC004
KZHU FIR / North America



MET'MAP, your aeronautical weather chart ! - Copyright ORBIFLY December 2007 - Disclaimer

ORBIFLY MET'MAP TEAM :

Programming & Development : Alexandra Zaïnal
Concept & original design : Baudouin d'Aumeries
Assistance for programming : Marc-Olivier Méhu
Technical & hardware support : Manuel Goepfert

Contact : metmap@orbifly.com




SOURCES & CREDITS :

   NOAA       Earth
Advisory